Terminal Aerodrome Forecast
Issued by NWS

Home | Current Version | Previous Version | Text Only | Print | Product List | Glossary On
Versions: 1 2 3 4 5 6 7 8 9 10 11 12 13 14 15 16 17 18 19
000
FTUS41 KCAR 251157 AAB
TAFHUL
TAF AMD
KHUL 251157Z 2512/2612 11009KT 1 1/2SM -DZ OVC005
     FM251500 12008KT 2SM -DZ BR OVC002
     FM252100 15009KT 1/2SM -DZ FG OVC001
     FM260500 15011KT 1SM -RA BR OVC005 WS020/16040KT
     FM261000 27009KT P6SM OVC010=

USA.gov is the U.S. government's official web portal to all federal, state and local government web resources and services.